Time,TemperatureF,DewpointF,PressureIn,WindDirection,WindDirectionDegrees,WindSpeedMPH,WindSpeedGustMPH,Humidity,HourlyPrecipIn,Conditions,Clouds,dailyrainin,SoftwareType,DateUTC
2013-01-15 00:02:00,15.0,10.0,30.47,South,180,0.0,-999.0,81,-99.99,,,-99.99,,2013-01-15 06:02:00,
2013-01-15 00:12:00,15.0,10.0,30.47,South,180,0.0,-999.0,81,-99.99,,,-99.99,,2013-01-15 06:12:00,
2013-01-15 00:22:00,15.0,10.0,30.47,South,180,0.0,-999.0,81,-99.99,,,-99.99,,2013-01-15 06:22:00,
2013-01-15 00:33:00,15.0,11.0,30.47,South,180,0.0,-999.0,82,-99.99,,,-99.99,,2013-01-15 06:33:00,
2013-01-15 00:42:00,15.0,11.0,30.47,South,180,0.0,-999.0,82,-99.99,,,-99.99,,2013-01-15 06:42:00,
2013-01-15 00:52:00,14.0,10.0,30.47,South,180,0.0,-999.0,83,-99.99,,,-99.99,,2013-01-15 06:52:00,
2013-01-15 01:02:00,14.0,10.0,30.47,South,180,0.0,-999.0,83,-99.99,,,-99.99,,2013-01-15 07:02:00,
2013-01-15 01:12:00,14.0,10.0,30.47,South,180,0.0,-999.0,83,-99.99,,,-99.99,,2013-01-15 07:12:00,
2013-01-15 01:22:00,14.0,10.0,30.47,South,180,0.0,-999.0,83,-99.99,,,-99.99,,2013-01-15 07:22:00,
2013-01-15 01:32:00,15.0,11.0,30.47,South,180,0.0,-999.0,82,-99.99,,,-99.99,,2013-01-15 07:32:00,
2013-01-15 01:42:00,15.0,11.0,30.47,South,180,0.0,-999.0,82,-99.99,,,-99.99,,2013-01-15 07:42:00,
2013-01-15 01:52:00,15.0,10.0,30.47,South,180,0.0,-999.0,81,-99.99,,,-99.99,,2013-01-15 07:52:00,
2013-01-15 02:02:00,14.0,10.0,30.47,South,180,0.0,-999.0,82,-99.99,,,-99.99,,2013-01-15 08:02:00,
2013-01-15 02:12:00,14.0,10.0,30.47,South,180,0.0,-999.0,82,-99.99,,,-99.99,,2013-01-15 08:12:00,
2013-01-15 02:22:00,14.0,10.0,30.47,South,180,0.0,-999.0,82,-99.99,,,-99.99,,2013-01-15 08:22:00,
2013-01-15 02:33:00,14.0,10.0,30.47,South,180,0.0,-999.0,82,-99.99,,,-99.99,,2013-01-15 08:33:00,
2013-01-15 02:42:00,14.0,10.0,30.47,South,180,0.0,-999.0,82,-99.99,,,-99.99,,2013-01-15 08:42:00,
2013-01-15 02:52:00,14.0,10.0,30.47,South,180,0.0,-999.0,83,-99.99,,,-99.99,,2013-01-15 08:52:00,
2013-01-15 03:02:00,13.0,9.0,30.47,South,180,0.0,-999.0,83,-99.99,,,-99.99,,2013-01-15 09:02:00,
2013-01-15 03:12:00,13.0,9.0,30.47,South,180,0.0,-999.0,83,-99.99,,,-99.99,,2013-01-15 09:12:00,
2013-01-15 03:22:00,13.0,9.0,30.47,South,180,0.0,-999.0,84,-99.99,,,-99.99,,2013-01-15 09:22:00,
2013-01-15 03:33:00,13.0,9.0,30.47,South,180,0.0,-999.0,85,-99.99,,,-99.99,,2013-01-15 09:33:00,
2013-01-15 03:42:00,13.0,9.0,30.47,South,180,0.0,-999.0,85,-99.99,,,-99.99,,2013-01-15 09:42:00,
2013-01-15 03:52:00,12.0,9.0,30.46,South,180,0.0,-999.0,86,-99.99,,,-99.99,,2013-01-15 09:52:00,
2013-01-15 04:02:00,12.0,9.0,30.46,South,180,0.0,-999.0,86,-99.99,,,-99.99,,2013-01-15 10:02:00,
2013-01-15 04:12:00,12.0,9.0,30.46,South,180,0.0,-999.0,86,-99.99,,,-99.99,,2013-01-15 10:12:00,
2013-01-15 04:22:00,12.0,9.0,30.45,South,180,0.0,-999.0,87,-99.99,,,-99.99,,2013-01-15 10:22:00,
2013-01-15 04:32:00,12.0,9.0,30.45,South,180,0.0,-999.0,87,-99.99,,,-99.99,,2013-01-15 10:32:00,
2013-01-15 04:42:00,12.0,9.0,30.45,South,180,0.0,-999.0,87,-99.99,,,-99.99,,2013-01-15 10:42:00,
2013-01-15 04:52:00,12.0,9.0,30.44,South,180,0.0,-999.0,87,-99.99,,,-99.99,,2013-01-15 10:52:00,
2013-01-15 05:02:00,12.0,9.0,30.45,South,180,0.0,-999.0,87,-99.99,,,-99.99,,2013-01-15 11:02:00,
2013-01-15 05:12:00,12.0,9.0,30.45,South,180,0.0,-999.0,87,-99.99,,,-99.99,,2013-01-15 11:12:00,
2013-01-15 05:22:00,11.0,8.0,30.43,South,180,0.0,-999.0,87,-99.99,,,-99.99,,2013-01-15 11:22:00,
2013-01-15 05:33:00,11.0,8.0,30.43,South,180,0.0,-999.0,88,-99.99,,,-99.99,,2013-01-15 11:33:00,
2013-01-15 05:42:00,11.0,8.0,30.43,South,180,0.0,-999.0,88,-99.99,,,-99.99,,2013-01-15 11:42:00,
2013-01-15 05:52:00,11.0,8.0,30.43,South,180,0.0,-999.0,89,-99.99,,,-99.99,,2013-01-15 11:52:00,
2013-01-15 06:03:00,11.0,8.0,30.43,South,180,0.0,-999.0,89,-99.99,,,-99.99,,2013-01-15 12:03:00,
2013-01-15 06:12:00,11.0,8.0,30.43,South,180,0.0,-999.0,89,-99.99,,,-99.99,,2013-01-15 12:12:00,
2013-01-15 06:22:00,11.0,8.0,30.42,South,180,0.0,-999.0,89,-99.99,,,-99.99,,2013-01-15 12:22:00,
2013-01-15 06:33:00,12.0,9.0,30.42,South,180,0.0,-999.0,89,-99.99,,,-99.99,,2013-01-15 12:33:00,
2013-01-15 06:42:00,12.0,9.0,30.42,South,180,0.0,-999.0,89,-99.99,,,-99.99,,2013-01-15 12:42:00,
2013-01-15 06:53:00,12.0,9.0,30.43,South,180,0.0,-999.0,89,-99.99,,,-99.99,,2013-01-15 12:53:00,
2013-01-15 07:03:00,12.0,9.0,30.43,South,180,0.0,-999.0,89,-99.99,,,-99.99,,2013-01-15 13:03:00,
2013-01-15 07:12:00,12.0,9.0,30.43,South,180,0.0,-999.0,89,-99.99,,,-99.99,,2013-01-15 13:12:00,
2013-01-15 07:23:00,12.0,12.0,30.43,South,180,0.0,-999.0,99,-99.99,,,-99.99,,2013-01-15 13:23:00,
2013-01-15 07:33:00,12.0,9.0,30.43,South,180,0.0,-999.0,89,-99.99,,,-99.99,,2013-01-15 13:33:00,
2013-01-15 07:43:00,12.0,9.0,30.43,South,180,0.0,-999.0,89,-99.99,,,-99.99,,2013-01-15 13:43:00,
2013-01-15 07:53:00,11.0,8.0,30.43,South,180,0.0,-999.0,89,-99.99,,,-99.99,,2013-01-15 13:53:00,
2013-01-15 08:02:00,11.0,9.0,30.42,South,180,0.0,-999.0,90,-99.99,,,-99.99,,2013-01-15 14:02:00,
2013-01-15 08:12:00,11.0,9.0,30.42,South,180,0.0,-999.0,90,-99.99,,,-99.99,,2013-01-15 14:12:00,
2013-01-15 08:23:00,12.0,10.0,30.43,South,180,0.0,-999.0,91,-99.99,,,-99.99,,2013-01-15 14:23:00,
2013-01-15 08:33:00,12.0,10.0,30.44,South,180,0.0,-999.0,91,-99.99,,,-99.99,,2013-01-15 14:33:00,
2013-01-15 08:43:00,12.0,10.0,30.44,South,180,0.0,-999.0,91,-99.99,,,-99.99,,2013-01-15 14:43:00,
2013-01-15 08:53:00,12.0,10.0,30.44,South,180,0.0,-999.0,91,-99.99,,,-99.99,,2013-01-15 14:53:00,
2013-01-15 09:03:00,16.0,13.0,30.46,South,180,0.0,-999.0,89,-99.99,,,-99.99,,2013-01-15 15:03:00,
2013-01-15 09:12:00,16.0,13.0,30.46,South,180,0.0,-999.0,89,-99.99,,,-99.99,,2013-01-15 15:12:00,
2013-01-15 09:23:00,17.0,14.0,30.46,South,180,0.0,-999.0,86,-99.99,,,-99.99,,2013-01-15 15:23:00,
2013-01-15 09:33:00,18.0,14.0,30.47,South,180,0.0,-999.0,85,-99.99,,,-99.99,,2013-01-15 15:33:00,
2013-01-15 09:43:00,18.0,14.0,30.47,South,180,0.0,-999.0,85,-99.99,,,-99.99,,2013-01-15 15:43:00,
2013-01-15 09:53:00,19.0,14.0,30.46,South,180,0.0,-999.0,82,-99.99,,,-99.99,,2013-01-15 15:53:00,
2013-01-15 10:03:00,21.0,16.0,30.45,South,180,0.0,-999.0,79,-99.99,,,-99.99,,2013-01-15 16:03:00,
2013-01-15 10:12:00,21.0,16.0,30.45,South,180,0.0,-999.0,79,-99.99,,,-99.99,,2013-01-15 16:12:00,
2013-01-15 10:22:00,22.0,15.0,30.45,South,180,0.0,-999.0,74,-99.99,,,-99.99,,2013-01-15 16:22:00,
2013-01-15 10:33:00,22.0,13.0,30.44,South,180,1.0,-999.0,68,-99.99,,,-99.99,,2013-01-15 16:33:00,
2013-01-15 10:42:00,22.0,13.0,30.44,South,180,1.0,-999.0,68,-99.99,,,-99.99,,2013-01-15 16:42:00,
2013-01-15 10:53:00,23.0,14.0,30.43,South,180,0.0,-999.0,67,-99.99,,,-99.99,,2013-01-15 16:53:00,
2013-01-15 11:03:00,24.0,14.0,30.41,South,180,0.0,-999.0,65,-99.99,,,-99.99,,2013-01-15 17:03:00,
2013-01-15 11:12:00,24.0,14.0,30.41,South,180,0.0,-999.0,65,-99.99,,,-99.99,,2013-01-15 17:12:00,
2013-01-15 11:22:00,25.0,14.0,30.42,South,191,1.0,-999.0,62,-99.99,,,-99.99,,2013-01-15 17:22:00,
2013-01-15 11:33:00,25.0,13.0,30.43,SSE,153,2.0,-999.0,60,-99.99,,,-99.99,,2013-01-15 17:33:00,
2013-01-15 11:42:00,25.0,13.0,30.43,SSE,153,2.0,-999.0,60,-99.99,,,-99.99,,2013-01-15 17:42:00,
2013-01-15 11:53:00,26.0,13.0,30.42,SSE,161,1.0,-999.0,58,-99.99,,,-99.99,,2013-01-15 17:53:00,
2013-01-15 12:03:00,26.0,13.0,30.42,SSE,161,1.0,-999.0,58,-99.99,,,-99.99,,2013-01-15 18:03:00,
2013-01-15 12:13:00,26.0,13.0,30.42,SSE,161,1.0,-999.0,58,-99.99,,,-99.99,,2013-01-15 18:13:00,
2013-01-15 12:23:00,27.0,14.0,30.40,SSE,161,3.0,-999.0,58,-99.99,,,-99.99,,2013-01-15 18:23:00,
2013-01-15 12:33:00,27.0,13.0,30.38,South,189,2.0,-999.0,56,-99.99,,,-99.99,,2013-01-15 18:33:00,
2013-01-15 12:43:00,27.0,13.0,30.38,South,189,2.0,-999.0,56,-99.99,,,-99.99,,2013-01-15 18:43:00,
2013-01-15 12:53:00,27.0,13.0,30.37,SE,140,1.0,-999.0,54,-99.99,,,-99.99,,2013-01-15 18:53:00,
2013-01-15 13:03:00,28.0,14.0,30.35,SE,140,0.0,-999.0,54,-99.99,,,-99.99,,2013-01-15 19:03:00,
2013-01-15 13:12:00,28.0,14.0,30.35,SE,140,0.0,-999.0,54,-99.99,,,-99.99,,2013-01-15 19:12:00,
2013-01-15 13:23:00,28.0,14.0,30.35,East,99,1.0,-999.0,54,-99.99,,,-99.99,,2013-01-15 19:23:00,
2013-01-15 13:33:00,28.0,14.0,30.34,ESE,104,1.0,-999.0,54,-99.99,,,-99.99,,2013-01-15 19:33:00,
2013-01-15 13:42:00,28.0,14.0,30.34,ESE,104,1.0,-999.0,54,-99.99,,,-99.99,,2013-01-15 19:42:00,
2013-01-15 13:53:00,28.0,13.0,30.33,SSW,192,1.0,-999.0,53,-99.99,,,-99.99,,2013-01-15 19:53:00,
2013-01-15 14:03:00,29.0,14.0,30.33,South,191,1.0,-999.0,52,-99.99,,,-99.99,,2013-01-15 20:03:00,
2013-01-15 14:12:00,29.0,14.0,30.33,South,191,1.0,-999.0,52,-99.99,,,-99.99,,2013-01-15 20:12:00,
2013-01-15 14:23:00,29.0,14.0,30.33,SSE,167,1.0,-999.0,52,-99.99,,,-99.99,,2013-01-15 20:23:00,
2013-01-15 14:33:00,29.0,14.0,30.33,SSE,159,1.0,-999.0,52,-99.99,,,-99.99,,2013-01-15 20:33:00,
2013-01-15 14:43:00,29.0,14.0,30.33,SSE,159,1.0,-999.0,52,-99.99,,,-99.99,,2013-01-15 20:43:00,
2013-01-15 14:52:00,29.0,13.0,30.33,SSE,161,1.0,-999.0,51,-99.99,,,-99.99,,2013-01-15 20:52:00,
2013-01-15 15:03:00,29.0,13.0,30.33,SSE,147,0.0,-999.0,51,-99.99,,,-99.99,,2013-01-15 21:03:00,
2013-01-15 15:13:00,29.0,13.0,30.33,SSE,147,0.0,-999.0,51,-99.99,,,-99.99,,2013-01-15 21:13:00,
2013-01-15 15:22:00,29.0,14.0,30.33,South,188,1.0,-999.0,52,-99.99,,,-99.99,,2013-01-15 21:22:00,
2013-01-15 15:23:00,30.0,14.0,30.33,South,178,0.0,-999.0,51,-99.99,,,-99.99,,2013-01-15 21:23:00,
2013-01-15 15:33:00,29.0,13.0,30.33,SSW,196,1.0,-999.0,51,-99.99,,,-99.99,,2013-01-15 21:33:00,
2013-01-15 15:43:00,29.0,13.0,30.33,SSW,196,1.0,-999.0,51,-99.99,,,-99.99,,2013-01-15 21:43:00,
2013-01-15 15:52:00,29.0,14.0,30.33,South,188,1.0,-999.0,52,-99.99,,,-99.99,,2013-01-15 21:52:00,
2013-01-15 16:03:00,29.0,14.0,30.33,South,188,1.0,-999.0,52,-99.99,,,-99.99,,2013-01-15 22:03:00,
2013-01-15 16:12:00,29.0,14.0,30.33,South,188,1.0,-999.0,52,-99.99,,,-99.99,,2013-01-15 22:12:00,
2013-01-15 16:33:00,28.0,14.0,30.32,SSE,158,1.0,-999.0,54,-99.99,,,-99.99,,2013-01-15 22:33:00,
2013-01-15 16:43:00,28.0,14.0,30.32,SSE,158,1.0,-999.0,54,-99.99,,,-99.99,,2013-01-15 22:43:00,
2013-01-15 16:53:00,28.0,15.0,30.32,SSE,155,2.0,-999.0,57,-99.99,,,-99.99,,2013-01-15 22:53:00,
2013-01-15 17:02:00,27.0,15.0,30.32,SSE,163,0.0,-999.0,59,-99.99,,,-99.99,,2013-01-15 23:02:00,
2013-01-15 17:13:00,27.0,15.0,30.32,SSE,163,0.0,-999.0,59,-99.99,,,-99.99,,2013-01-15 23:13:00,
2013-01-15 17:22:00,27.0,14.0,30.32,SSW,193,1.0,-999.0,58,-99.99,,,-99.99,,2013-01-15 23:22:00,
2013-01-15 17:33:00,26.0,13.0,30.31,SSW,193,0.0,-999.0,58,-99.99,,,-99.99,,2013-01-15 23:33:00,
2013-01-15 17:43:00,26.0,13.0,30.31,SSW,193,0.0,-999.0,58,-99.99,,,-99.99,,2013-01-15 23:43:00,
2013-01-15 17:53:00,25.0,12.0,30.30,SSW,193,0.0,-999.0,58,-99.99,,,-99.99,,2013-01-15 23:53:00,
2013-01-15 18:02:00,25.0,12.0,30.30,SSW,193,0.0,-999.0,58,-99.99,,,-99.99,,2013-01-16 00:02:00,
2013-01-15 18:12:00,25.0,12.0,30.30,SSW,193,0.0,-999.0,58,-99.99,,,-99.99,,2013-01-16 00:12:00,
2013-01-15 18:22:00,24.0,12.0,30.29,SSW,193,0.0,-999.0,59,-99.99,,,-99.99,,2013-01-16 00:22:00,
2013-01-15 18:33:00,24.0,13.0,30.28,SSW,193,0.0,-999.0,61,-99.99,,,-99.99,,2013-01-16 00:33:00,
2013-01-15 18:43:00,24.0,13.0,30.28,SSW,193,0.0,-999.0,61,-99.99,,,-99.99,,2013-01-16 00:43:00,
2013-01-15 18:52:00,24.0,13.0,30.28,SSW,193,0.0,-999.0,61,-99.99,,,-99.99,,2013-01-16 00:52:00,
2013-01-15 19:03:00,22.0,13.0,30.27,SSW,193,0.0,-999.0,67,-99.99,,,-99.99,,2013-01-16 01:03:00,
2013-01-15 19:12:00,22.0,13.0,30.27,SSW,193,0.0,-999.0,67,-99.99,,,-99.99,,2013-01-16 01:12:00,
2013-01-15 19:22:00,21.0,12.0,30.27,SSW,193,0.0,-999.0,69,-99.99,,,-99.99,,2013-01-16 01:22:00,
2013-01-15 19:33:00,21.0,13.0,30.26,SSW,193,0.0,-999.0,70,-99.99,,,-99.99,,2013-01-16 01:33:00,
2013-01-15 19:42:00,21.0,13.0,30.26,SSW,193,0.0,-999.0,70,-99.99,,,-99.99,,2013-01-16 01:42:00,
2013-01-15 19:52:00,21.0,13.0,30.25,SSW,193,0.0,-999.0,72,-99.99,,,-99.99,,2013-01-16 01:52:00,
2013-01-15 20:03:00,20.0,13.0,30.25,SSW,193,0.0,-999.0,73,-99.99,,,-99.99,,2013-01-16 02:03:00,
2013-01-15 20:12:00,20.0,13.0,30.25,SSW,193,0.0,-999.0,73,-99.99,,,-99.99,,2013-01-16 02:12:00,
2013-01-15 20:22:00,20.0,13.0,30.24,SSW,193,0.0,-999.0,74,-99.99,,,-99.99,,2013-01-16 02:22:00,
2013-01-15 20:32:00,19.0,12.0,30.23,SSW,193,0.0,-999.0,75,-99.99,,,-99.99,,2013-01-16 02:32:00,
2013-01-15 20:42:00,19.0,12.0,30.23,SSW,193,0.0,-999.0,75,-99.99,,,-99.99,,2013-01-16 02:42:00,
2013-01-15 20:52:00,19.0,12.0,30.23,SSW,193,0.0,-999.0,75,-99.99,,,-99.99,,2013-01-16 02:52:00,
2013-01-15 21:03:00,19.0,13.0,30.22,SSW,193,0.0,-999.0,77,-99.99,,,-99.99,,2013-01-16 03:03:00,
2013-01-15 21:12:00,19.0,13.0,30.22,SSW,193,0.0,-999.0,77,-99.99,,,-99.99,,2013-01-16 03:12:00,
2013-01-15 21:22:00,19.0,13.0,30.22,SSW,193,0.0,-999.0,77,-99.99,,,-99.99,,2013-01-16 03:22:00,
2013-01-15 21:32:00,19.0,13.0,30.21,SSW,193,0.0,-999.0,78,-99.99,,,-99.99,,2013-01-16 03:32:00,
2013-01-15 21:43:00,19.0,13.0,30.21,SSW,193,0.0,-999.0,78,-99.99,,,-99.99,,2013-01-16 03:43:00,
2013-01-15 21:52:00,18.0,13.0,30.20,SSW,193,0.0,-999.0,79,-99.99,,,-99.99,,2013-01-16 03:52:00,
2013-01-15 22:02:00,18.0,13.0,30.20,SSW,193,0.0,-999.0,79,-99.99,,,-99.99,,2013-01-16 04:02:00,
2013-01-15 22:12:00,18.0,13.0,30.20,SSW,193,0.0,-999.0,79,-99.99,,,-99.99,,2013-01-16 04:12:00,
2013-01-15 22:22:00,18.0,13.0,30.19,SSW,193,0.0,-999.0,79,-99.99,,,-99.99,,2013-01-16 04:22:00,
2013-01-15 22:32:00,18.0,13.0,30.18,SSW,193,0.0,-999.0,79,-99.99,,,-99.99,,2013-01-16 04:32:00,
2013-01-15 22:42:00,18.0,13.0,30.18,SSW,193,0.0,-999.0,79,-99.99,,,-99.99,,2013-01-16 04:42:00,
2013-01-15 22:52:00,18.0,13.0,30.18,SSW,193,0.0,-999.0,79,-99.99,,,-99.99,,2013-01-16 04:52:00,
2013-01-15 23:03:00,18.0,13.0,30.18,SSW,193,0.0,-999.0,79,-99.99,,,-99.99,,2013-01-16 05:03:00,
2013-01-15 23:12:00,18.0,13.0,30.18,SSW,193,0.0,-999.0,79,-99.99,,,-99.99,,2013-01-16 05:12:00,
2013-01-15 23:22:00,17.0,12.0,30.17,SSW,193,0.0,-999.0,79,-99.99,,,-99.99,,2013-01-16 05:22:00,
2013-01-15 23:32:00,17.0,12.0,30.18,SSW,193,0.0,-999.0,81,-99.99,,,-99.99,,2013-01-16 05:32:00,
2013-01-15 23:42:00,17.0,12.0,30.18,SSW,193,0.0,-999.0,81,-99.99,,,-99.99,,2013-01-16 05:42:00,
2013-01-15 23:53:00,17.0,12.0,30.18,SSW,193,0.0,-999.0,81,-99.99,,,-99.99,,2013-01-16 05:53:00,